Airfield :
LOGIN :

Register | Disclaimer

   EN    FR    IT 

 










Legend :    VFR   Marginal VFR   IFR   Intensive IFR   Very Intensive IFR
Visi :
Ceiling :
>= 8 km
>= 3000ft
5 to 8 km
1000 to 3000 ft
1500m to 5 km
500 to 1000 ft
800 to 1500m
200 to 500 ft
< 800m
< 200 ft
Symbols :   Thunderstorms  Fog  Heavy snow  Heavy precipitations  Wind > 20 kt
SIGMETs :     Misc.  Thunderstorms  Icing  Turbulence  Mountain Waves  Volcanic Ashes







- Airport Elevation : 7 ft
- IATA code : POW


LJPZ - Portoroz

CURRENT METAR :
  • 181230Z 32005KT 290V350 9999 FEW050 BKN080 19/09 Q1024

EXPIRED METARs :
  • 181200Z 30008KT 9999 FEW050 BKN080 19/07 Q1024
  • 181130Z 30010KT 9999 FEW050 SCT080 18/10 Q1024
  • 181100Z 30011KT 9999 FEW050 17/09 Q1024
  • 181030Z 32010KT 9999 FEW050 19/07 Q1024
  • 181000Z 31010KT 280V340 9999 FEW050 19/09 Q1024

TAF TAF LJPZ
Valid from the 18 at 12:00 until the 18 at 21:00 UTC


181100Z 1812/1821 29008KT CAVOK
TEMPO 1812/1817 25007KT FEW050
BECMG 1817/1819 11007KT
No reported NOTAMs for that airfield.



MET'MAP, your aeronautical weather chart ! - Copyright ORBIFLY December 2007 - Disclaimer

ORBIFLY MET'MAP TEAM :

Programming & Development : Alexandra Zaïnal
Concept & Development : Baudouin d'Aumeries
Co-Development & Prog : Marc-Olivier Méhu
Technical & hardware support : Manuel Goepfert

Contact : metmap@orbifly.com




SOURCES & CREDITS :

   NOAA